Grand Rapids, MI

10:20 AM EST on March 04, 2015 (GMT -0500)
Tulip City | Change Station
CLOSE
Current Station
Airport
Location: Holland,
Elevation: 686 ft
Nearby Weather Stations

Elev 686 ft 42.75 °N, 86.10 °W | Updated 27 minutes ago

Partly Cloudy
Partly Cloudy
24 °F
Feels Like 12 °F
N
15
Wind Variable Wind from NW
Gusts 23 mph

Today
High -- | Low -- °F
--% Chance of Precip.
Yesterday
High -- | Low -- °F
Precip. -- in
7:13 AM 6:35 PM
Waxing Gibbous, 99% visible
Pressure 30.04 in
Visibility 10.0 miles
Clouds Mostly Cloudy 2200 ft
Windchill 12 °F
Dew Point 15 °F
Humidity 69%
Rainfall 0.00 in
Snow Depth Not available.
UV 1 out of 12
Pollen .30 out of 12
Air Quality Not available.
Flu Activity Not available.
METAR KBIV 041453Z AUTO 32013G20KT 10SM BKN022 M04/M09 A3000 RMK AO2 SLP170 T10441094 51021

More Conditions Fewer Conditions

Pressure 30.04 in
Visibility 10.0 miles
Clouds Mostly Cloudy 2200 ft
Windchill 12 °F
Dew Point 15 °F
Humidity 69%
Rainfall 0.00 in
Snow Depth Not available.
UV 1 out of 12
Pollen .30 out of 12
Air Quality Not available.
Flu Activity Not available.
METAR KBIV 041453Z AUTO 32013G20KT 10SM BKN022 M04/M09 A3000 RMK AO2 SLP170 T10441094 51021

More Conditions Fewer Conditions

10-Day Weather Forecast

Almanac

Astronomy

Mar. 04, 2015 Rise Set
Actual Time
Civil Twilight
Nautical Twilight
Astronomical Twilight
Moon
Length of Visible Light
Length of Day
Tomorrow will be .
, % of the Moon is Illuminated

Today's Extremes

State Highs State Lows

Community

WunderPhotos

Upload Photos

1,802,489 photos uploaded!

WunderBlogs® & News

Nearby

Air Quality

  Air Quality AQ Index Pollutant
Not available.

Snow Depth

Station Depth Elevation

Earthquake Activity

City Distance Mag. Time & Date
Minimum magnitude displayed is 2.5.

Coastal Water Temperatures

Place Temperature

Nearby Weather Stations